Time;durP1;ratioP1;P1;durP2;ratioP2;P2;SDS_P1;SDS_P2;PMS_P1;PMS_P2;Temp;Humidity;BMP_temperature;BMP_pressure;BME280_temperature;BME280_humidity;BME280_pressure;Samples;Min_cycle;Max_cycle;Signal;HPM_P1;HPM_P2
2021/06/10 00:00:17;;;;;;;7.55;6.80;;;23.80;67.10;;;;;;5182207;28;20052;-70
2021/06/10 00:02:50;;;;;;;8.23;6.55;;;23.80;67.00;;;;;;5179016;28;20046;-71
2021/06/10 00:05:22;;;;;;;8.82;7.22;;;23.80;67.10;;;;;;5179572;28;20054;-71
2021/06/10 00:07:55;;;;;;;8.52;6.65;;;23.80;67.00;;;;;;5170873;28;20069;-70
2021/06/10 00:10:29;;;;;;;8.93;7.22;;;23.80;67.10;;;;;;5179661;28;20061;-70
2021/06/10 00:13:02;;;;;;;8.10;6.78;;;23.80;67.10;;;;;;5175649;28;20158;-70
2021/06/10 00:15:36;;;;;;;7.55;6.75;;;23.80;67.10;;;;;;5180027;28;20054;-70
2021/06/10 00:18:08;;;;;;;10.27;7.32;;;23.80;67.00;;;;;;5180060;28;20064;-70
2021/06/10 00:20:41;;;;;;;7.50;6.70;;;23.80;67.10;;;;;;5179429;28;20384;-70
2021/06/10 00:23:14;;;;;;;7.63;6.22;;;23.80;67.10;;;;;;5179880;28;20419;-70
2021/06/10 00:25:47;;;;;;;9.10;7.30;;;23.80;67.10;;;;;;5175866;28;20338;-71
2021/06/10 00:28:20;;;;;;;7.40;6.70;;;23.80;67.10;;;;;;5177876;28;20061;-70
2021/06/10 00:30:52;;;;;;;6.80;6.20;;;23.80;67.10;;;;;;5178250;28;20293;-71
2021/06/10 00:33:25;;;;;;;7.93;7.13;;;23.80;67.10;;;;;;5181471;28;20311;-71
2021/06/10 00:35:58;;;;;;;7.78;7.03;;;23.80;67.10;;;;;;5181430;28;21040;-70
2021/06/10 00:38:30;;;;;;;8.88;6.68;;;23.80;67.80;;;;;;5173901;28;20749;-71
2021/06/10 00:41:03;;;;;;;9.00;6.90;;;23.80;67.10;;;;;;5180055;28;20045;-70
2021/06/10 00:43:36;;;;;;;9.50;6.40;;;23.80;67.10;;;;;;5176315;28;20061;-70
2021/06/10 00:46:08;;;;;;;7.53;6.15;;;23.70;67.00;;;;;;5178496;28;20583;-71
2021/06/10 00:48:42;;;;;;;6.78;6.07;;;23.80;67.10;;;;;;5178206;28;20062;-70
2021/06/10 00:51:14;;;;;;;6.90;6.20;;;23.80;67.10;;;;;;5177900;28;20053;-70
2021/06/10 00:53:47;;;;;;;10.52;7.57;;;23.80;67.10;;;;;;5189281;28;20307;-70
2021/06/10 00:56:19;;;;;;;8.30;6.97;;;23.80;67.10;;;;;;5180099;28;20048;-71
2021/06/10 00:58:53;;;;;;;7.53;6.23;;;23.70;67.10;;;;;;5180263;28;20057;-71
2021/06/10 01:01:26;;;;;;;7.40;6.53;;;23.70;67.10;;;;;;5177923;28;20065;-70
2021/06/10 01:03:58;;;;;;;6.97;6.25;;;23.70;67.20;;;;;;5175419;28;20058;-70
2021/06/10 01:06:54;;;;;;;9.38;7.30;;;23.70;67.20;;;;;;5175975;28;20128;-70
2021/06/10 01:09:44;;;;;;;9.25;6.50;;;23.70;67.10;;;;;;5178388;28;20426;-71
2021/06/10 01:12:28;;;;;;;7.18;6.47;;;23.70;67.20;;;;;;5176056;28;20612;-70
2021/06/10 01:15:14;;;;;;;9.30;6.80;;;23.80;67.20;;;;;;5176990;28;20050;-70
2021/06/10 01:17:48;;;;;;;10.30;6.40;;;23.80;67.30;;;;;;5178106;28;20396;-70
2021/06/10 01:20:26;;;;;;;6.97;6.38;;;23.80;67.30;;;;;;5177169;28;20057;-71
2021/06/10 01:22:58;;;;;;;7.35;6.40;;;23.70;67.30;;;;;;5177104;28;20045;-71
2021/06/10 01:25:31;;;;;;;6.80;6.05;;;23.80;67.30;;;;;;5173700;28;20057;-70
2021/06/10 01:28:10;;;;;;;6.40;5.80;;;23.80;67.30;;;;;;5177313;28;20049;-70
2021/06/10 01:30:48;;;;;;;8.43;6.32;;;23.70;67.30;;;;;;5173901;28;20065;-71
2021/06/10 01:33:43;;;;;;;10.82;6.90;;;23.70;67.20;;;;;;5178207;28;20045;-71
2021/06/10 01:36:22;;;;;;;6.90;6.20;;;23.70;67.30;;;;;;5176147;28;20049;-71
2021/06/10 01:38:58;;;;;;;6.75;6.15;;;23.70;67.30;;;;;;5174685;28;20057;-71
2021/06/10 01:41:32;;;;;;;6.85;6.15;;;23.70;67.30;;;;;;5174818;28;20054;-71
2021/06/10 01:44:07;;;;;;;7.25;6.10;;;23.70;67.30;;;;;;5175344;28;20473;-71
2021/06/10 01:46:40;;;;;;;7.05;6.35;;;23.70;67.30;;;;;;5177273;28;20503;-71
2021/06/10 01:49:16;;;;;;;8.93;6.63;;;23.70;67.30;;;;;;5175513;28;20056;-71
2021/06/10 01:51:51;;;;;;;6.90;6.18;;;23.70;67.30;;;;;;5174184;28;20057;-71
2021/06/10 01:54:25;;;;;;;10.13;5.93;;;23.70;67.30;;;;;;5173848;28;20057;-72
2021/06/10 01:56:58;;;;;;;;;;;23.70;67.20;;;;;;5175139;28;20502;-71
2021/06/10 01:59:32;;;;;;;6.53;5.70;;;23.60;67.20;;;;;;5175378;28;19936;-71
2021/06/10 02:02:06;;;;;;;6.55;5.85;;;23.70;67.40;;;;;;5170198;28;20062;-71
2021/06/10 02:04:41;;;;;;;6.97;5.72;;;23.70;67.30;;;;;;5177378;28;20053;-71
2021/06/10 02:07:14;;;;;;;6.70;6.00;;;23.70;67.30;;;;;;5175886;28;20041;-71
2021/06/10 02:09:47;;;;;;;7.40;6.38;;;23.70;67.40;;;;;;5180610;28;20068;-71
2021/06/10 02:12:20;;;;;;;6.78;5.80;;;23.70;67.40;;;;;;5170873;28;20058;-71
2021/06/10 02:14:54;;;;;;;8.75;6.38;;;23.70;67.40;;;;;;5172531;28;20768;-71
2021/06/10 02:17:26;;;;;;;6.93;6.22;;;23.70;67.40;;;;;;5174588;28;20511;-71
2021/06/10 02:19:59;;;;;;;7.88;6.28;;;23.70;67.50;;;;;;5177965;28;20054;-71
2021/06/10 02:22:32;;;;;;;8.95;6.38;;;23.70;67.40;;;;;;5179775;28;20384;-71
2021/06/10 02:25:06;;;;;;;8.20;7.15;;;23.70;67.40;;;;;;5175733;28;20061;-71
2021/06/10 02:27:38;;;;;;;6.78;6.07;;;23.70;67.40;;;;;;5171235;28;20068;-71
2021/06/10 02:30:13;;;;;;;7.32;5.78;;;23.70;67.40;;;;;;5174773;28;20068;-71
2021/06/10 02:32:46;;;;;;;9.07;6.38;;;23.70;67.40;;;;;;5170163;28;20415;-71
2021/06/10 02:35:18;;;;;;;6.57;5.97;;;23.70;67.30;;;;;;5173181;28;26640;-71
2021/06/10 02:37:55;;;;;;;8.30;6.27;;;23.70;67.30;;;;;;5179900;28;20053;-71
2021/06/10 02:40:35;;;;;;;6.55;5.88;;;23.70;67.40;;;;;;5171481;28;20292;-71
2021/06/10 02:43:10;;;;;;;7.40;6.03;;;23.70;67.30;;;;;;5178414;28;20061;-71
2021/06/10 02:45:47;;;;;;;7.32;6.38;;;23.70;67.30;;;;;;5179958;28;20049;-71
2021/06/10 02:48:21;;;;;;;6.50;5.90;;;23.70;67.30;;;;;;5181473;28;20533;-71
2021/06/10 02:50:53;;;;;;;;;;;23.70;67.40;;;;;;5178469;28;20068;-71
2021/06/10 02:53:30;;;;;;;7.35;6.45;;;23.60;67.30;;;;;;5170685;28;19925;-71
2021/06/10 02:56:05;;;;;;;7.32;6.28;;;23.60;67.40;;;;;;5183201;28;20046;-71
2021/06/10 02:58:38;;;;;;;7.40;6.70;;;23.70;67.50;;;;;;5176635;28;20507;-71
2021/06/10 03:01:12;;;;;;;8.35;6.63;;;23.70;67.50;;;;;;5179499;28;20679;-71
2021/06/10 03:03:44;;;;;;;8.60;5.72;;;23.60;67.50;;;;;;5181743;28;20287;-70
2021/06/10 03:06:18;;;;;;;9.05;6.18;;;23.60;67.50;;;;;;5171941;28;20068;-72
2021/06/10 03:08:52;;;;;;;14.38;6.22;;;23.60;67.50;;;;;;5176159;28;20054;-72
2021/06/10 03:11:24;;;;;;;;;;;23.60;67.40;;;;;;5175738;28;20057;-72
2021/06/10 03:13:58;;;;;;;7.55;6.53;;;23.60;67.40;;;;;;5167041;28;19935;-72
2021/06/10 03:16:30;;;;;;;8.13;6.22;;;23.60;67.50;;;;;;5178132;28;20057;-72
2021/06/10 03:19:03;;;;;;;7.43;6.60;;;23.60;67.50;;;;;;5193670;28;20053;-72
2021/06/10 03:21:37;;;;;;;9.93;6.20;;;23.60;67.40;;;;;;5170890;28;20483;-72
2021/06/10 03:24:10;;;;;;;7.50;6.35;;;23.60;67.40;;;;;;5170179;28;20084;-72
2021/06/10 03:26:44;;;;;;;6.37;5.77;;;23.60;67.40;;;;;;5171755;28;20065;-72
2021/06/10 03:29:18;;;;;;;7.15;6.43;;;23.60;67.40;;;;;;5182538;28;20430;-72
2021/06/10 03:31:52;;;;;;;6.53;5.90;;;23.60;67.40;;;;;;5173107;28;20511;-72
2021/06/10 03:34:27;;;;;;;8.18;6.00;;;23.60;67.40;;;;;;5174287;28;20057;-72
2021/06/10 03:37:01;;;;;;;9.02;6.55;;;23.70;67.40;;;;;;5170361;28;20046;-72
2021/06/10 03:39:36;;;;;;;7.97;5.68;;;23.70;67.40;;;;;;5190537;28;20041;-72
2021/06/10 03:42:10;;;;;;;9.50;6.32;;;23.70;67.50;;;;;;5165366;28;20042;-72
2021/06/10 03:44:43;;;;;;;10.48;6.50;;;23.60;67.40;;;;;;5176939;28;20049;-72
2021/06/10 03:47:16;;;;;;;7.73;6.00;;;23.60;67.40;;;;;;5173507;28;25262;-72
2021/06/10 03:49:49;;;;;;;8.77;6.47;;;23.60;67.40;;;;;;5175274;28;20049;-72
2021/06/10 03:52:28;;;;;;;9.10;6.07;;;23.60;67.50;;;;;;5172576;28;20060;-72
2021/06/10 03:55:04;;;;;;;7.57;5.95;;;23.60;67.40;;;;;;5177897;28;20053;-72
2021/06/10 03:57:37;;;;;;;9.23;6.30;;;23.70;67.50;;;;;;5173054;28;20052;-72
2021/06/10 04:00:10;;;;;;;9.57;6.00;;;23.70;67.50;;;;;;5174139;28;20170;-72
2021/06/10 04:02:43;;;;;;;8.13;6.13;;;23.60;67.40;;;;;;5179017;28;20049;-72
2021/06/10 04:05:15;;;;;;;9.63;5.78;;;23.60;67.50;;;;;;5180459;28;20751;-72
2021/06/10 04:07:48;;;;;;;8.53;5.87;;;23.60;67.50;;;;;;5174404;28;20058;-72
2021/06/10 04:10:21;;;;;;;7.55;5.70;;;23.60;67.50;;;;;;5180813;28;20541;-72
2021/06/10 04:12:54;;;;;;;7.17;6.20;;;23.60;67.40;;;;;;5175816;28;20085;-72
2021/06/10 04:15:26;;;;;;;7.70;5.90;;;23.70;67.50;;;;;;5184846;28;20069;-72
2021/06/10 04:17:59;;;;;;;6.93;5.90;;;23.70;67.60;;;;;;5174365;28;20737;-72
2021/06/10 04:20:31;;;;;;;7.63;6.03;;;23.60;67.60;;;;;;5172366;28;20054;-72
2021/06/10 04:23:04;;;;;;;7.07;6.07;;;23.60;67.50;;;;;;5169288;28;20661;-72
2021/06/10 04:25:36;;;;;;;6.63;5.85;;;23.60;67.50;;;;;;5170419;28;20050;-72
2021/06/10 04:28:12;;;;;;;7.05;6.25;;;23.60;67.50;;;;;;5172331;28;20087;-72
2021/06/10 04:30:45;;;;;;;8.68;5.88;;;23.60;67.60;;;;;;5166655;28;20058;-71
2021/06/10 04:33:18;;;;;;;9.30;5.78;;;23.60;67.60;;;;;;5174179;28;20525;-72
2021/06/10 04:35:50;;;;;;;9.45;6.00;;;23.60;67.60;;;;;;5169561;28;20527;-71
2021/06/10 04:38:23;;;;;;;7.55;5.85;;;23.60;67.60;;;;;;5165561;28;20045;-72
2021/06/10 04:40:55;;;;;;;8.57;5.63;;;23.60;67.60;;;;;;5167683;28;20056;-72
2021/06/10 04:43:28;;;;;;;10.35;6.57;;;23.60;67.60;;;;;;5166516;28;20336;-72
2021/06/10 04:46:01;;;;;;;6.50;5.77;;;23.60;67.70;;;;;;5167344;28;20068;-72
2021/06/10 04:48:34;;;;;;;8.20;5.82;;;23.60;67.60;;;;;;5167460;28;20049;-71
2021/06/10 04:51:07;;;;;;;12.50;6.07;;;23.60;67.70;;;;;;5165794;28;20060;-72
2021/06/10 04:53:45;;;;;;;7.95;5.60;;;23.60;67.70;;;;;;5172168;28;20061;-72
2021/06/10 04:56:18;;;;;;;7.88;6.45;;;23.70;67.80;;;;;;5156608;28;20546;-72
2021/06/10 04:58:51;;;;;;;17.00;6.95;;;23.60;67.70;;;;;;5167279;28;20041;-73
2021/06/10 05:01:24;;;;;;;12.27;6.03;;;23.70;68.20;;;;;;5166900;28;20053;-71
2021/06/10 05:03:56;;;;;;;13.82;6.43;;;23.70;68.20;;;;;;5162074;28;20064;-71
2021/06/10 05:06:29;;;;;;;17.35;6.80;;;23.70;68.00;;;;;;5173703;28;21099;-71
2021/06/10 05:09:02;;;;;;;23.15;6.70;;;23.70;67.80;;;;;;5176223;28;20115;-70
2021/06/10 05:11:34;;;;;;;16.85;7.35;;;23.70;67.90;;;;;;5181282;28;20494;-71
2021/06/10 05:14:07;;;;;;;12.70;7.47;;;23.70;67.90;;;;;;5175413;28;20065;-70
2021/06/10 05:16:40;;;;;;;12.52;6.65;;;23.70;67.60;;;;;;5179742;28;20076;-70
2021/06/10 05:19:12;;;;;;;11.07;6.72;;;23.70;67.50;;;;;;5178209;28;20046;-71
2021/06/10 05:21:45;;;;;;;18.75;6.65;;;23.70;67.40;;;;;;5179413;28;20061;-71
2021/06/10 05:24:19;;;;;;;13.45;6.35;;;23.70;67.30;;;;;;5171615;28;20053;-71
2021/06/10 05:26:51;;;;;;;20.60;7.70;;;23.70;67.30;;;;;;5168486;28;20157;-71
2021/06/10 05:29:24;;;;;;;23.10;7.60;;;23.70;67.20;;;;;;5171451;28;20546;-71
2021/06/10 05:31:57;;;;;;;11.75;7.25;;;23.70;67.20;;;;;;5169589;28;20426;-71
2021/06/10 05:34:31;;;;;;;16.98;6.50;;;23.70;67.20;;;;;;5163344;28;20046;-71
2021/06/10 05:37:04;;;;;;;19.67;6.80;;;23.70;67.30;;;;;;5179247;28;20095;-71
2021/06/10 05:39:37;;;;;;;11.93;6.57;;;23.70;67.30;;;;;;5179777;28;20069;-71
2021/06/10 05:42:10;;;;;;;14.05;6.07;;;23.70;67.20;;;;;;5178189;28;20077;-71
2021/06/10 05:44:43;;;;;;;10.52;7.03;;;23.70;67.20;;;;;;5174190;28;21132;-71
2021/06/10 05:47:15;;;;;;;11.63;6.90;;;23.70;67.00;;;;;;5175636;28;20042;-71
2021/06/10 05:49:48;;;;;;;17.65;7.13;;;23.70;67.00;;;;;;5181138;28;20277;-71
2021/06/10 05:52:23;;;;;;;12.70;6.63;;;23.70;67.00;;;;;;5178049;28;20061;-71
2021/06/10 05:54:57;;;;;;;10.70;7.15;;;23.60;67.00;;;;;;5179336;28;20080;-71
2021/06/10 05:57:30;;;;;;;13.30;7.57;;;23.60;67.00;;;;;;5179240;28;20045;-71
2021/06/10 06:00:06;;;;;;;12.02;7.38;;;23.70;67.30;;;;;;5177220;28;20053;-71
2021/06/10 06:02:42;;;;;;;11.75;7.25;;;23.60;66.60;;;;;;5176733;28;20053;-71
2021/06/10 06:05:15;;;;;;;8.80;6.75;;;23.60;66.70;;;;;;5177338;28;20415;-71
2021/06/10 06:07:49;;;;;;;11.77;7.37;;;23.70;66.80;;;;;;5185145;28;20057;-71
2021/06/10 06:10:22;;;;;;;8.30;7.38;;;23.60;66.70;;;;;;5178046;28;20061;-71
2021/06/10 06:12:57;;;;;;;9.13;6.90;;;23.60;66.60;;;;;;5182694;28;20045;-71
2021/06/10 06:15:29;;;;;;;15.20;8.20;;;23.60;66.60;;;;;;5196432;28;20050;-71
2021/06/10 06:18:02;;;;;;;10.27;7.57;;;23.70;66.60;;;;;;5178912;28;20049;-71
2021/06/10 06:20:36;;;;;;;8.10;7.00;;;23.70;66.60;;;;;;5173140;28;20534;-71
2021/06/10 06:23:09;;;;;;;8.48;7.32;;;23.70;66.50;;;;;;5175384;28;20049;-71
2021/06/10 06:25:41;;;;;;;9.97;6.77;;;23.70;66.50;;;;;;5187444;28;20054;-71
2021/06/10 06:28:14;;;;;;;11.00;7.25;;;23.70;66.40;;;;;;5185176;28;20322;-71
2021/06/10 06:30:46;;;;;;;7.93;7.18;;;23.70;66.40;;;;;;5179482;28;20049;-71
2021/06/10 06:33:19;;;;;;;9.82;6.72;;;23.70;66.30;;;;;;5182563;28;20076;-71
2021/06/10 06:35:52;;;;;;;9.30;7.67;;;23.70;66.30;;;;;;5182381;28;20053;-71
2021/06/10 06:38:24;;;;;;;11.27;7.53;;;23.70;66.30;;;;;;5197330;28;21171;-71
2021/06/10 06:40:57;;;;;;;8.85;6.57;;;23.70;66.20;;;;;;5188688;28;21050;-71
2021/06/10 06:43:31;;;;;;;12.23;7.50;;;23.70;66.20;;;;;;5181847;28;20061;-71
2021/06/10 06:46:08;;;;;;;10.27;7.32;;;23.70;66.20;;;;;;5178060;28;20053;-71
2021/06/10 06:48:41;;;;;;;10.68;6.72;;;23.70;66.20;;;;;;5179632;28;20080;-71
2021/06/10 06:51:13;;;;;;;7.85;6.93;;;23.70;66.10;;;;;;5171825;28;20164;-71
2021/06/10 06:53:46;;;;;;;11.10;7.13;;;23.70;66.10;;;;;;5180664;28;20061;-71
2021/06/10 06:56:25;;;;;;;7.93;6.85;;;23.70;66.10;;;;;;5178795;28;20045;-71
2021/06/10 06:58:59;;;;;;;8.07;6.68;;;23.70;66.10;;;;;;5176045;28;20049;-71
2021/06/10 07:01:31;;;;;;;9.35;6.72;;;23.70;66.00;;;;;;5178383;28;20057;-71
2021/06/10 07:04:04;;;;;;;8.32;7.05;;;23.70;66.00;;;;;;5174724;28;20045;-71
2021/06/10 07:06:36;;;;;;;8.63;6.77;;;23.70;66.00;;;;;;5181951;28;20418;-71
2021/06/10 07:09:09;;;;;;;8.00;7.07;;;23.70;66.00;;;;;;5179704;28;20080;-70
2021/06/10 07:11:42;;;;;;;9.88;6.80;;;23.70;65.90;;;;;;5181993;28;20054;-71
2021/06/10 07:14:14;;;;;;;9.10;7.30;;;23.80;65.90;;;;;;5178211;28;20511;-71
2021/06/10 07:16:47;;;;;;;8.37;7.50;;;23.80;65.80;;;;;;5178062;28;20313;-71
2021/06/10 07:19:20;;;;;;;8.65;7.57;;;23.80;65.80;;;;;;5179025;28;20522;-72
2021/06/10 07:21:52;;;;;;;9.57;8.50;;;23.80;66.00;;;;;;5175166;28;20053;-71
2021/06/10 07:24:46;;;;;;;11.25;9.80;;;23.80;66.10;;;;;;5181485;28;20545;-71
2021/06/10 07:27:19;;;;;;;11.50;9.50;;;23.80;66.30;;;;;;5177601;28;20053;-70
2021/06/10 07:29:53;;;;;;;12.55;9.27;;;23.80;66.20;;;;;;5171259;28;20399;-70
2021/06/10 07:32:26;;;;;;;9.60;7.63;;;23.80;66.10;;;;;;5171514;28;20058;-70
2021/06/10 07:34:59;;;;;;;11.40;8.55;;;23.80;66.00;;;;;;5176667;28;20057;-70
2021/06/10 07:37:32;;;;;;;11.57;9.48;;;23.80;66.00;;;;;;5179738;28;20492;-70
2021/06/10 07:40:05;;;;;;;9.85;8.63;;;23.80;66.00;;;;;;5179788;28;20050;-70
2021/06/10 07:42:37;;;;;;;14.65;9.98;;;23.80;65.90;;;;;;5179413;28;20406;-70
2021/06/10 07:45:11;;;;;;;14.73;9.15;;;23.80;66.00;;;;;;5181292;28;20052;-70
2021/06/10 07:47:43;;;;;;;11.90;9.57;;;23.80;66.00;;;;;;5184902;28;20045;-70
2021/06/10 07:50:16;;;;;;;10.05;8.95;;;23.80;66.00;;;;;;5184484;28;20064;-70
2021/06/10 07:52:49;;;;;;;10.00;8.57;;;23.80;66.00;;;;;;5188476;28;20051;-70
2021/06/10 07:55:22;;;;;;;12.57;8.60;;;23.80;65.90;;;;;;5189609;28;20580;-71
2021/06/10 07:57:55;;;;;;;11.45;8.90;;;23.80;65.90;;;;;;5187488;28;20061;-70
2021/06/10 08:00:28;;;;;;;9.98;8.75;;;23.80;65.80;;;;;;5190975;28;20044;-70
2021/06/10 08:03:01;;;;;;;11.45;8.77;;;23.80;65.90;;;;;;5183270;28;20065;-70
2021/06/10 08:05:33;;;;;;;10.68;9.02;;;23.80;65.80;;;;;;5183512;28;20084;-69
2021/06/10 08:08:06;;;;;;;10.70;9.43;;;23.80;65.80;;;;;;5189098;28;20053;-70
2021/06/10 08:10:40;;;;;;;13.93;9.73;;;23.80;65.90;;;;;;5188234;28;20049;-70
2021/06/10 08:13:15;;;;;;;12.57;9.43;;;23.80;66.10;;;;;;5184223;28;20046;-70
2021/06/10 08:15:51;;;;;;;13.85;10.07;;;23.80;66.20;;;;;;5185748;28;20530;-71
2021/06/10 08:18:23;;;;;;;12.80;9.90;;;23.80;66.20;;;;;;5191556;28;20083;-70
2021/06/10 08:20:57;;;;;;;13.33;9.57;;;23.80;66.20;;;;;;5190918;28;20431;-70
2021/06/10 08:23:31;;;;;;;13.90;9.95;;;23.80;66.10;;;;;;5181690;28;20053;-70
2021/06/10 08:26:06;;;;;;;12.80;10.18;;;23.80;66.10;;;;;;5187376;28;20049;-70
2021/06/10 08:28:38;;;;;;;14.38;11.00;;;23.80;66.00;;;;;;5182093;28;20061;-70
2021/06/10 08:31:11;;;;;;;14.02;11.02;;;23.80;66.00;;;;;;5180055;28;20057;-70
2021/06/10 08:33:43;;;;;;;14.45;10.43;;;23.80;65.90;;;;;;5179633;28;20064;-70
2021/06/10 08:36:18;;;;;;;12.48;10.20;;;23.80;65.80;;;;;;5178778;28;20050;-70
2021/06/10 08:38:51;;;;;;;15.80;11.38;;;23.80;65.70;;;;;;5181707;28;20404;-70
2021/06/10 08:41:26;;;;;;;16.23;10.93;;;23.80;65.70;;;;;;5183400;28;20049;-70
2021/06/10 08:43:59;;;;;;;13.20;10.20;;;23.80;65.60;;;;;;5186446;28;20049;-70
2021/06/10 08:46:33;;;;;;;12.25;10.90;;;23.80;65.60;;;;;;5192563;28;20073;-69
2021/06/10 08:49:06;;;;;;;12.55;10.38;;;23.80;65.60;;;;;;5194046;28;20353;-68
2021/06/10 08:51:39;;;;;;;13.20;11.30;;;23.80;65.60;;;;;;5195389;28;20060;-68
2021/06/10 08:54:11;;;;;;;12.18;10.88;;;23.80;65.60;;;;;;5196363;28;20057;-68
2021/06/10 08:56:44;;;;;;;13.68;11.15;;;23.80;65.60;;;;;;5197268;28;20524;-68
2021/06/10 08:59:16;;;;;;;13.27;11.33;;;23.80;65.70;;;;;;5199754;28;20069;-67
2021/06/10 09:01:49;;;;;;;13.88;10.65;;;23.80;65.60;;;;;;5200185;28;20046;-67
2021/06/10 09:04:21;;;;;;;12.10;10.80;;;23.80;65.70;;;;;;5204799;28;20060;-68
2021/06/10 09:06:55;;;;;;;11.70;10.50;;;23.80;65.70;;;;;;5205435;28;20053;-68
2021/06/10 09:09:36;;;;;;;12.65;11.27;;;23.80;65.70;;;;;;5214872;28;20075;-68
2021/06/10 09:12:11;;;;;;;14.85;10.82;;;23.80;65.70;;;;;;5201337;28;20576;-68
2021/06/10 09:15:01;;;;;;;14.25;11.05;;;23.80;65.70;;;;;;5219738;28;20044;-68
2021/06/10 09:17:36;;;;;;;15.05;10.48;;;23.80;65.60;;;;;;5203539;28;20076;-68
2021/06/10 09:20:18;;;;;;;11.38;10.23;;;23.80;65.70;;;;;;5204100;28;20143;-68
2021/06/10 09:23:06;;;;;;;15.20;11.57;;;23.80;65.70;;;;;;5196222;28;20054;-68
2021/06/10 09:25:40;;;;;;;12.63;10.85;;;23.80;65.70;;;;;;5200353;28;20053;-68
2021/06/10 09:28:13;;;;;;;11.70;10.50;;;23.80;65.70;;;;;;5202146;28;20403;-68
2021/06/10 09:30:52;;;;;;;14.05;11.20;;;23.80;65.70;;;;;;5201662;28;20057;-68
2021/06/10 09:33:26;;;;;;;13.55;10.93;;;23.80;65.60;;;;;;5202672;28;20060;-68
2021/06/10 09:36:03;;;;;;;21.58;12.10;;;23.80;65.40;;;;;;5203061;28;20061;-68
2021/06/10 09:38:36;;;;;;;14.95;10.85;;;23.90;65.40;;;;;;5213016;28;20049;-68
2021/06/10 09:41:09;;;;;;;17.70;11.47;;;23.90;65.40;;;;;;5205549;28;20415;-68
2021/06/10 09:43:46;;;;;;;13.75;10.95;;;23.90;65.30;;;;;;5204608;28;20057;-68
2021/06/10 09:46:18;;;;;;;14.55;11.20;;;23.90;65.40;;;;;;5205771;28;20057;-68
2021/06/10 09:49:05;;;;;;;15.85;11.00;;;23.90;65.30;;;;;;5208854;28;20276;-68
2021/06/10 09:51:37;;;;;;;13.27;10.50;;;23.90;65.20;;;;;;5200303;28;20049;-68
2021/06/10 09:54:10;;;;;;;12.68;10.43;;;24.00;65.20;;;;;;5203065;28;20396;-68
2021/06/10 09:56:59;;;;;;;14.70;10.70;;;23.90;65.20;;;;;;5205293;28;20051;-68
2021/06/10 09:59:52;;;;;;;13.45;10.75;;;23.90;65.20;;;;;;5199642;28;20514;-68
2021/06/10 10:02:27;;;;;;;12.30;10.45;;;23.90;65.20;;;;;;5200380;28;20045;-67
2021/06/10 10:04:59;;;;;;;12.07;9.77;;;23.90;65.30;;;;;;5201159;28;20065;-68
2021/06/10 10:07:34;;;;;;;;;;;23.90;65.30;;;;;;5210202;28;20060;-68
2021/06/10 10:10:09;;;;;;;14.02;10.00;;;23.90;65.30;;;;;;5212778;28;19928;-68
2021/06/10 10:12:45;;;;;;;12.65;10.18;;;23.90;65.40;;;;;;5195158;28;20058;-68
2021/06/10 10:15:18;;;;;;;17.10;10.60;;;23.90;65.40;;;;;;5198981;28;20061;-68
2021/06/10 10:17:51;;;;;;;12.00;10.05;;;23.90;65.40;;;;;;5201600;28;20041;-68
2021/06/10 10:20:23;;;;;;;13.30;11.05;;;23.90;65.40;;;;;;5201031;28;20057;-68
2021/06/10 10:22:56;;;;;;;15.10;11.02;;;23.90;65.40;;;;;;5204340;28;20552;-68
2021/06/10 10:25:29;;;;;;;14.27;10.43;;;23.90;65.40;;;;;;5202004;28;20064;-67
2021/06/10 10:28:07;;;;;;;11.55;9.73;;;23.90;65.30;;;;;;5215646;28;20560;-68
2021/06/10 10:30:44;;;;;;;11.95;9.73;;;23.90;65.20;;;;;;5199141;28;20053;-68
2021/06/10 10:33:19;;;;;;;11.52;10.35;;;24.00;65.30;;;;;;5203239;28;20635;-68
2021/06/10 10:35:57;;;;;;;12.82;10.55;;;24.00;65.20;;;;;;5203417;28;20052;-68
2021/06/10 10:38:31;;;;;;;17.90;10.75;;;24.00;65.20;;;;;;5200050;28;20192;-68
2021/06/10 10:41:12;;;;;;;14.38;10.32;;;24.00;65.20;;;;;;5198514;28;20049;-68
2021/06/10 10:43:44;;;;;;;11.15;9.23;;;24.00;65.10;;;;;;5200914;28;20057;-68
2021/06/10 10:46:19;;;;;;;13.40;10.50;;;24.00;65.00;;;;;;5200680;28;20049;-68
2021/06/10 10:48:52;;;;;;;13.25;10.15;;;24.00;65.10;;;;;;5193322;28;20518;-68
2021/06/10 10:51:34;;;;;;;12.02;10.15;;;24.00;65.00;;;;;;5201509;28;20045;-68
2021/06/10 10:54:30;;;;;;;12.10;9.57;;;24.00;65.00;;;;;;5201724;28;20041;-68
2021/06/10 10:57:03;;;;;;;14.60;9.65;;;24.00;65.00;;;;;;5194754;28;20414;-68
2021/06/10 10:59:50;;;;;;;11.80;10.60;;;24.00;65.00;;;;;;5197902;28;20081;-68
2021/06/10 11:02:23;;;;;;;14.35;11.25;;;24.00;65.00;;;;;;5197599;28;20419;-69
2021/06/10 11:05:05;;;;;;;11.38;10.15;;;24.00;65.70;;;;;;5201346;28;20426;-69
2021/06/10 11:07:38;;;;;;;11.02;9.93;;;24.00;65.00;;;;;;5201172;28;20045;-68
2021/06/10 11:10:14;;;;;;;;;;;24.00;65.10;;;;;;5195853;28;20057;-68
2021/06/10 11:12:54;;;;;;;13.45;9.73;;;24.00;65.10;;;;;;5199790;28;19921;-68
2021/06/10 11:15:30;;;;;;;14.57;9.40;;;24.00;65.80;;;;;;5197048;28;20061;-68
2021/06/10 11:18:06;;;;;;;12.10;9.13;;;24.00;65.70;;;;;;5202226;28;20060;-68
2021/06/10 11:20:39;;;;;;;11.68;9.48;;;24.00;65.00;;;;;;5201791;28;20473;-69
2021/06/10 11:23:17;;;;;;;10.55;9.20;;;24.00;65.00;;;;;;5201688;28;20049;-68
2021/06/10 11:25:52;;;;;;;11.30;9.55;;;24.10;65.00;;;;;;5205544;28;20092;-68
2021/06/10 11:28:27;;;;;;;10.80;9.63;;;24.10;64.90;;;;;;5201497;28;20057;-69
2021/06/10 11:31:20;;;;;;;14.13;9.00;;;24.10;64.80;;;;;;5201277;28;20049;-69
2021/06/10 11:33:53;;;;;;;12.65;10.32;;;24.20;64.70;;;;;;5196547;28;20085;-69
2021/06/10 11:36:26;;;;;;;10.87;9.00;;;24.10;64.70;;;;;;5200225;28;20805;-69
2021/06/10 11:38:59;;;;;;;13.55;8.93;;;24.20;64.80;;;;;;5197726;28;20041;-69
2021/06/10 11:41:31;;;;;;;12.85;9.82;;;24.10;64.80;;;;;;5198630;28;20057;-68
2021/06/10 11:44:04;;;;;;;12.95;9.80;;;24.10;64.80;;;;;;5201472;28;20049;-69
2021/06/10 11:46:40;;;;;;;10.77;9.67;;;24.10;64.80;;;;;;5201201;28;20514;-69
2021/06/10 11:49:13;;;;;;;11.95;9.52;;;24.20;64.90;;;;;;5191814;28;20048;-68
2021/06/10 11:51:48;;;;;;;12.18;9.77;;;24.10;64.80;;;;;;5201998;28;20524;-69
2021/06/10 11:54:20;;;;;;;12.20;9.80;;;24.10;64.80;;;;;;5198815;28;20069;-69
2021/06/10 11:56:59;;;;;;;10.77;9.48;;;24.20;64.90;;;;;;5196349;28;20061;-68
2021/06/10 11:59:37;;;;;;;10.55;9.00;;;24.20;64.70;;;;;;5203176;28;20514;-69
2021/06/10 12:02:10;;;;;;;11.48;9.20;;;24.20;64.70;;;;;;5198149;28;20056;-69
2021/06/10 12:04:43;;;;;;;18.30;10.55;;;24.20;64.60;;;;;;5197916;28;20046;-69
2021/06/10 12:07:18;;;;;;;10.95;9.50;;;24.20;64.60;;;;;;5200063;28;20054;-69
2021/06/10 12:09:55;;;;;;;20.58;10.75;;;24.30;64.50;;;;;;5201962;28;20064;-69
2021/06/10 12:12:41;;;;;;;17.88;9.55;;;24.30;64.50;;;;;;5200260;28;20058;-69
2021/06/10 12:15:29;;;;;;;17.40;10.32;;;24.30;64.60;;;;;;5202981;28;20064;-68
2021/06/10 12:18:14;;;;;;;14.77;9.85;;;24.30;64.70;;;;;;5194359;28;20376;-68
2021/06/10 12:21:01;;;;;;;17.40;10.10;;;24.40;64.80;;;;;;5199680;28;20529;-69
2021/06/10 12:23:41;;;;;;;14.23;10.75;;;24.40;64.80;;;;;;5201463;28;20053;-68
2021/06/10 12:26:17;;;;;;;12.70;9.55;;;24.40;64.80;;;;;;5200510;28;20467;-68
2021/06/10 12:28:57;;;;;;;16.80;10.13;;;24.40;64.90;;;;;;5203733;28;20049;-69
2021/06/10 12:31:36;;;;;;;13.63;9.73;;;24.40;64.90;;;;;;5200871;28;20049;-69
2021/06/10 12:34:09;;;;;;;12.55;9.25;;;24.50;65.00;;;;;;5200455;28;20080;-68
2021/06/10 12:36:44;;;;;;;12.32;9.32;;;24.50;65.00;;;;;;5203653;28;20512;-68
2021/06/10 12:39:19;;;;;;;14.57;9.00;;;24.50;65.00;;;;;;5199465;28;20521;-68
2021/06/10 12:41:54;;;;;;;16.42;8.73;;;24.50;65.10;;;;;;5200449;28;20054;-70
2021/06/10 12:44:27;;;;;;;13.25;9.57;;;24.40;64.90;;;;;;5194011;28;20061;-70
2021/06/10 12:47:02;;;;;;;;;;;24.40;65.00;;;;;;5190637;28;20046;-69
2021/06/10 12:49:42;;;;;;;17.27;9.32;;;24.40;65.00;;;;;;5189501;28;20287;-69
2021/06/10 12:52:25;;;;;;;17.73;9.73;;;24.40;65.00;;;;;;5190408;28;20061;-70
2021/06/10 12:55:00;;;;;;;13.98;10.20;;;24.50;64.90;;;;;;5192863;28;20057;-70
2021/06/10 12:57:37;;;;;;;16.77;9.93;;;24.50;65.50;;;;;;5166027;28;20062;-71
2021/06/10 13:00:12;;;;;;;19.73;10.15;;;24.60;64.70;;;;;;5169192;28;20054;-72
2021/06/10 13:02:45;;;;;;;21.17;9.85;;;24.70;64.50;;;;;;5175597;28;20048;-72
2021/06/10 13:05:18;;;;;;;18.23;9.52;;;24.80;64.90;;;;;;5179850;28;20044;-71
2021/06/10 13:08:09;;;;;;;15.70;9.43;;;25.00;63.90;;;;;;5173017;28;20044;-71
2021/06/10 13:10:44;;;;;;;20.48;8.75;;;25.10;63.70;;;;;;5168961;28;20045;-72
2021/06/10 13:13:32;;;;;;;17.05;9.88;;;25.20;63.60;;;;;;5167595;28;21074;-71
2021/06/10 13:16:05;;;;;;;16.95;9.05;;;25.20;62.90;;;;;;5174059;28;20331;-71
2021/06/10 13:18:37;;;;;;;17.60;9.07;;;25.40;63.00;;;;;;5172404;28;20049;-72